Time;durP1;ratioP1;P1;durP2;ratioP2;P2;SDS_P1;SDS_P2;PMS_P1;PMS_P2;Temp;Humidity;BMP_temperature;BMP_pressure;BME280_temperature;BME280_humidity;BME280_pressure;Samples;Min_cycle;Max_cycle;Signal;HPM_P1;HPM_P2
2022/03/09 00:00:53;;;;;;;0.20;0.20;;;22.30;99.90;;;;;;4915599;29;20229;-70
2022/03/09 00:03:20;;;;;;;0.27;0.20;;;22.30;99.90;;;;;;4917819;29;20715;-68
2022/03/09 00:05:48;;;;;;;0.33;0.30;;;22.40;99.90;;;;;;4917885;29;20187;-68
2022/03/09 00:08:16;;;;;;;0.20;0.20;;;22.40;99.90;;;;;;4917654;29;20186;-68
2022/03/09 00:10:43;;;;;;;1.13;0.17;;;22.30;99.90;;;;;;4917149;29;20685;-69
2022/03/09 00:13:11;;;;;;;0.17;0.17;;;22.30;99.90;;;;;;4917056;29;20287;-70
2022/03/09 00:15:38;;;;;;;1.60;0.10;;;22.60;99.90;;;;;;4917563;29;20654;-68
2022/03/09 00:18:05;;;;;;;0.10;0.10;;;23.10;99.90;;;;;;4917386;29;20215;-70
2022/03/09 00:20:33;;;;;;;0.47;0.13;;;23.30;99.90;;;;;;4917186;29;20259;-70
2022/03/09 00:23:00;;;;;;;0.10;0.10;;;23.50;99.90;;;;;;4917415;29;20224;-70
2022/03/09 00:25:27;;;;;;;0.10;0.10;;;23.90;99.90;;;;;;4917405;29;20189;-70
2022/03/09 00:27:55;;;;;;;0.87;0.20;;;24.40;99.90;;;;;;4917349;29;20208;-70
2022/03/09 00:30:22;;;;;;;0.10;0.10;;;24.50;99.90;;;;;;4917074;29;20188;-70
2022/03/09 00:32:50;;;;;;;0.87;0.20;;;25.20;99.90;;;;;;4917391;29;20181;-70
2022/03/09 00:35:17;;;;;;;0.20;0.20;;;24.30;99.90;;;;;;4915910;29;20189;-70
2022/03/09 00:37:45;;;;;;;0.10;0.10;;;24.10;99.90;;;;;;4916235;29;20181;-70
2022/03/09 00:40:12;;;;;;;0.10;0.10;;;24.10;99.90;;;;;;4917187;29;20197;-69
2022/03/09 00:42:40;;;;;;;0.10;0.10;;;24.10;99.90;;;;;;4916201;29;20221;-70
2022/03/09 00:45:08;;;;;;;1.80;0.20;;;24.10;99.90;;;;;;4916502;29;20185;-69
2022/03/09 00:47:36;;;;;;;1.07;0.30;;;23.90;99.90;;;;;;4916026;29;20192;-70
2022/03/09 00:50:21;;;;;;;0.30;0.10;;;23.70;99.90;;;;;;4916429;29;20655;-69
2022/03/09 00:52:49;;;;;;;0.10;0.10;;;23.50;99.90;;;;;;4898011;29;20244;-69
2022/03/09 00:55:16;;;;;;;0.30;0.20;;;23.50;99.90;;;;;;4911475;29;20188;-70
2022/03/09 00:57:44;;;;;;;0.50;0.10;;;23.70;99.90;;;;;;4916510;29;20287;-70
2022/03/09 01:00:12;;;;;;;0.47;0.17;;;23.40;99.90;;;;;;4916662;29;20228;-70
2022/03/09 01:02:43;;;;;;;0.23;0.10;;;23.40;99.90;;;;;;4915825;29;20256;-70
2022/03/09 01:05:12;;;;;;;0.10;0.10;;;23.30;99.90;;;;;;4914287;29;20228;-70
2022/03/09 01:07:39;;;;;;;3.67;0.20;;;23.20;99.90;;;;;;4914939;29;20183;-70
2022/03/09 01:10:07;;;;;;;0.83;0.10;;;23.30;99.90;;;;;;4916495;29;20185;-69
2022/03/09 01:12:45;;;;;;;0.43;0.20;;;23.20;99.90;;;;;;4916233;29;20242;-70
2022/03/09 01:15:12;;;;;;;2.00;0.13;;;23.10;99.90;;;;;;4916184;29;20187;-70
2022/03/09 01:17:40;;;;;;;0.10;0.10;;;23.20;99.90;;;;;;4916460;29;20206;-70
2022/03/09 01:20:08;;;;;;;0.20;0.20;;;23.10;99.90;;;;;;4916411;29;20179;-70
2022/03/09 01:22:35;;;;;;;0.30;0.10;;;23.10;99.90;;;;;;4915985;29;20224;-70
2022/03/09 01:25:03;;;;;;;0.50;0.30;;;23.30;99.90;;;;;;4916287;29;20195;-69
2022/03/09 01:27:30;;;;;;;0.53;0.10;;;23.70;99.90;;;;;;4916499;29;20682;-70
2022/03/09 01:29:58;;;;;;;1.37;0.30;;;23.70;99.90;;;;;;4916227;29;20187;-69
2022/03/09 01:32:25;;;;;;;1.43;0.10;;;24.00;99.90;;;;;;4916244;29;20560;-70
2022/03/09 01:34:59;;;;;;;0.60;0.20;;;23.80;99.90;;;;;;4915913;29;20194;-70
2022/03/09 01:37:27;;;;;;;0.47;0.10;;;24.00;99.90;;;;;;4915915;29;20196;-70
2022/03/09 01:39:54;;;;;;;0.10;0.10;;;24.10;99.90;;;;;;4916145;29;20719;-70
2022/03/09 01:42:22;;;;;;;0.60;0.40;;;24.30;99.90;;;;;;4915868;29;20223;-70
2022/03/09 01:44:49;;;;;;;1.47;0.70;;;24.30;99.90;;;;;;4915995;29;20521;-71
2022/03/09 01:47:16;;;;;;;0.40;0.20;;;24.80;99.90;;;;;;4915665;29;20642;-70
2022/03/09 01:49:44;;;;;;;1.60;0.20;;;24.80;99.90;;;;;;4915789;29;20566;-70
2022/03/09 01:52:13;;;;;;;0.43;0.10;;;24.50;99.90;;;;;;4914423;29;20199;-70
2022/03/09 01:54:40;;;;;;;0.53;0.40;;;24.60;99.90;;;;;;4915351;29;20190;-70
2022/03/09 01:57:08;;;;;;;0.50;0.20;;;24.90;99.90;;;;;;4915988;29;20519;-72
2022/03/09 01:59:35;;;;;;;1.03;0.20;;;25.00;99.90;;;;;;4916012;29;20181;-69
2022/03/09 02:02:03;;;;;;;0.53;0.30;;;24.40;99.90;;;;;;4915778;29;20613;-68
2022/03/09 02:04:31;;;;;;;0.40;0.20;;;24.60;99.90;;;;;;4915091;29;20272;-69
2022/03/09 02:06:58;;;;;;;0.20;0.20;;;24.80;99.90;;;;;;4915919;29;20256;-68
2022/03/09 02:09:46;;;;;;;0.30;0.20;;;24.70;99.90;;;;;;4915077;29;20209;-68
2022/03/09 02:12:18;;;;;;;0.20;0.20;;;24.60;99.90;;;;;;4914207;29;20581;-69
2022/03/09 02:14:51;;;;;;;1.17;0.20;;;24.60;99.90;;;;;;4915285;29;20186;-70
2022/03/09 02:17:27;;;;;;;0.47;0.20;;;24.50;99.90;;;;;;4915790;29;20216;-70
2022/03/09 02:19:56;;;;;;;0.10;0.10;;;24.50;99.90;;;;;;4915688;29;20559;-70
2022/03/09 02:22:32;;;;;;;0.37;0.30;;;24.40;99.90;;;;;;4915543;29;20228;-70
2022/03/09 02:25:01;;;;;;;0.53;0.20;;;24.60;99.90;;;;;;4915478;29;20216;-70
2022/03/09 02:27:29;;;;;;;0.20;0.20;;;24.40;99.90;;;;;;4915474;29;20185;-70
2022/03/09 02:29:56;;;;;;;0.30;0.10;;;24.50;99.90;;;;;;4915376;29;20275;-70
2022/03/09 02:32:24;;;;;;;1.30;0.20;;;24.20;99.90;;;;;;4915523;29;20338;-70
2022/03/09 02:34:52;;;;;;;0.20;0.20;;;24.40;99.90;;;;;;4915284;29;20269;-69
2022/03/09 02:37:19;;;;;;;0.50;0.20;;;24.30;99.90;;;;;;4915522;29;20185;-69
2022/03/09 02:39:47;;;;;;;0.10;0.10;;;24.50;99.90;;;;;;4915523;29;20173;-70
2022/03/09 02:42:15;;;;;;;0.63;0.20;;;24.60;99.90;;;;;;4915403;29;20267;-69
2022/03/09 02:44:43;;;;;;;1.03;0.37;;;24.80;99.90;;;;;;4915107;29;20190;-70
2022/03/09 02:47:10;;;;;;;0.23;0.20;;;24.80;99.90;;;;;;4915483;29;20178;-72
2022/03/09 02:49:38;;;;;;;0.30;0.30;;;24.60;99.90;;;;;;4915558;29;20182;-71
2022/03/09 02:52:05;;;;;;;2.03;0.30;;;24.90;99.90;;;;;;4915432;29;20229;-71
2022/03/09 02:54:33;;;;;;;0.10;0.10;;;24.90;99.90;;;;;;4914902;29;20189;-69
2022/03/09 02:57:00;;;;;;;0.50;0.20;;;24.70;99.90;;;;;;4914943;29;20186;-70
2022/03/09 02:59:28;;;;;;;0.20;0.20;;;24.80;99.90;;;;;;4915299;29;20221;-69
2022/03/09 03:01:55;;;;;;;0.17;0.10;;;24.90;99.90;;;;;;4917900;29;20244;-70
2022/03/09 03:04:22;;;;;;;1.03;0.20;;;25.60;99.90;;;;;;4918583;29;20232;-70
2022/03/09 03:06:50;;;;;;;2.13;0.20;;;25.30;99.90;;;;;;4918813;29;20701;-70
2022/03/09 03:09:17;;;;;;;1.70;0.23;;;25.40;99.90;;;;;;4918624;29;20711;-70
2022/03/09 03:11:45;;;;;;;2.00;0.20;;;26.20;99.90;;;;;;4918787;29;20197;-71
2022/03/09 03:14:12;;;;;;;0.93;0.10;;;25.90;99.90;;;;;;4918386;29;20193;-69
2022/03/09 03:16:39;;;;;;;0.60;0.27;;;25.50;99.90;;;;;;4918687;29;20584;-69
2022/03/09 03:19:07;;;;;;;0.47;0.20;;;25.20;99.90;;;;;;4918688;29;20212;-69
2022/03/09 03:21:34;;;;;;;0.60;0.20;;;25.70;99.90;;;;;;4918522;29;20291;-69
2022/03/09 03:24:01;;;;;;;0.37;0.10;;;25.90;99.90;;;;;;4918293;29;20189;-69
2022/03/09 03:26:29;;;;;;;0.40;0.20;;;25.40;99.90;;;;;;4918333;29;20177;-69
2022/03/09 03:28:58;;;;;;;0.13;0.13;;;25.60;99.90;;;;;;4918482;29;20178;-68
2022/03/09 03:31:29;;;;;;;0.10;0.10;;;26.30;99.90;;;;;;4918184;29;20667;-69
2022/03/09 03:33:57;;;;;;;0.30;0.20;;;25.70;99.90;;;;;;4917044;29;20233;-67
2022/03/09 03:36:25;;;;;;;1.90;0.17;;;26.00;99.90;;;;;;4918136;29;20264;-69
2022/03/09 03:38:52;;;;;;;0.10;0.10;;;26.00;99.90;;;;;;4917884;29;20264;-69
2022/03/09 03:41:20;;;;;;;0.10;0.10;;;25.50;99.90;;;;;;4918146;29;20209;-68
2022/03/09 03:43:47;;;;;;;0.37;0.20;;;25.90;99.90;;;;;;4918226;29;20620;-68
2022/03/09 03:46:14;;;;;;;0.30;0.30;;;25.90;99.90;;;;;;4918118;29;20192;-68
2022/03/09 03:48:42;;;;;;;0.20;0.10;;;26.20;99.90;;;;;;4918866;29;20225;-68
2022/03/09 03:51:09;;;;;;;1.50;0.20;;;26.20;99.90;;;;;;4919545;29;20248;-69
2022/03/09 03:53:36;;;;;;;0.10;0.10;;;25.40;99.90;;;;;;4917786;29;20184;-69
2022/03/09 03:56:04;;;;;;;0.20;0.20;;;25.00;99.90;;;;;;4917826;29;20193;-69
2022/03/09 03:58:31;;;;;;;0.47;0.20;;;25.50;99.90;;;;;;4917857;29;20181;-69
2022/03/09 04:00:59;;;;;;;0.13;0.10;;;25.40;99.90;;;;;;4917515;29;20711;-71
2022/03/09 04:03:26;;;;;;;0.33;0.20;;;25.70;99.90;;;;;;4917601;29;20217;-71
2022/03/09 04:06:06;;;;;;;0.43;0.20;;;26.00;99.90;;;;;;4916474;29;20193;-71
2022/03/09 04:08:33;;;;;;;0.70;0.20;;;26.60;99.90;;;;;;4917251;29;20241;-71
2022/03/09 04:11:00;;;;;;;0.70;0.20;;;26.50;99.90;;;;;;4915904;29;20185;-70
2022/03/09 04:13:28;;;;;;;0.50;0.20;;;26.80;99.90;;;;;;4917496;29;20551;-71
2022/03/09 04:15:55;;;;;;;0.33;0.20;;;26.70;99.90;;;;;;4916923;29;20193;-70
2022/03/09 04:18:22;;;;;;;0.10;0.10;;;26.30;99.90;;;;;;4917395;29;20651;-71
2022/03/09 04:20:50;;;;;;;0.30;0.10;;;26.00;99.90;;;;;;4917315;29;20181;-73
2022/03/09 04:23:17;;;;;;;0.10;0.10;;;26.00;99.90;;;;;;4917462;29;20196;-70
2022/03/09 04:25:44;;;;;;;0.40;0.20;;;25.90;99.90;;;;;;4916712;29;20181;-71
2022/03/09 04:28:11;;;;;;;0.23;0.20;;;26.00;99.90;;;;;;4917379;29;20240;-72
2022/03/09 04:30:39;;;;;;;0.10;0.10;;;26.00;99.90;;;;;;4916953;29;20193;-72
2022/03/09 04:33:06;;;;;;;0.17;0.17;;;25.90;99.90;;;;;;4917330;29;20695;-72
2022/03/09 04:35:33;;;;;;;0.50;0.20;;;25.90;99.90;;;;;;4916683;29;20204;-72
2022/03/09 04:38:01;;;;;;;0.47;0.20;;;25.80;99.90;;;;;;4917216;29;20181;-71
2022/03/09 04:40:29;;;;;;;0.30;0.20;;;25.40;99.90;;;;;;4916805;29;20218;-72
2022/03/09 04:42:56;;;;;;;0.53;0.27;;;25.20;99.90;;;;;;4917022;29;20225;-71
2022/03/09 04:45:35;;;;;;;1.40;0.30;;;25.40;99.90;;;;;;4916942;29;20639;-72
2022/03/09 04:48:03;;;;;;;3.00;0.20;;;25.20;99.90;;;;;;4916559;29;20193;-71
2022/03/09 04:50:30;;;;;;;0.50;0.20;;;24.90;99.90;;;;;;4916359;29;20216;-71
2022/03/09 04:52:58;;;;;;;1.00;0.40;;;25.60;99.90;;;;;;4915486;29;20723;-72
2022/03/09 04:55:25;;;;;;;10.93;0.47;;;26.40;99.90;;;;;;4916691;29;20177;-72
2022/03/09 04:57:52;;;;;;;0.40;0.20;;;26.60;99.90;;;;;;4915333;29;20192;-70
2022/03/09 05:00:20;;;;;;;0.30;0.10;;;26.70;99.90;;;;;;4916336;29;20256;-71
2022/03/09 05:02:47;;;;;;;0.60;0.17;;;26.20;99.90;;;;;;4915910;29;20598;-73
2022/03/09 05:05:15;;;;;;;1.13;0.20;;;25.70;99.90;;;;;;4916355;29;20193;-72
2022/03/09 05:07:42;;;;;;;0.30;0.17;;;25.60;99.90;;;;;;4916718;29;20192;-71
2022/03/09 05:10:12;;;;;;;0.10;0.10;;;25.40;99.90;;;;;;4916706;29;20782;-71
2022/03/09 05:12:40;;;;;;;0.10;0.10;;;25.40;99.90;;;;;;4916383;29;20184;-71
2022/03/09 05:15:08;;;;;;;0.20;0.20;;;25.40;99.90;;;;;;4916082;29;20197;-72
2022/03/09 05:17:44;;;;;;;0.20;0.20;;;25.80;99.90;;;;;;4916536;29;20269;-71
2022/03/09 05:20:12;;;;;;;0.20;0.13;;;25.80;99.90;;;;;;4916546;29;20196;-70
2022/03/09 05:22:40;;;;;;;0.63;0.20;;;26.00;99.90;;;;;;4914516;29;20232;-71
2022/03/09 05:25:08;;;;;;;0.10;0.10;;;25.70;99.90;;;;;;4915582;29;20228;-71
2022/03/09 05:27:35;;;;;;;1.87;0.20;;;25.80;99.90;;;;;;4916243;29;20185;-71
2022/03/09 05:30:03;;;;;;;0.23;0.10;;;25.70;99.90;;;;;;4916163;29;20186;-71
2022/03/09 05:32:30;;;;;;;1.10;0.10;;;26.00;99.90;;;;;;4915898;29;20189;-72
2022/03/09 05:34:58;;;;;;;0.27;0.20;;;26.10;99.90;;;;;;4915767;29;20208;-70
2022/03/09 05:37:28;;;;;;;0.20;0.20;;;26.00;99.90;;;;;;4916221;29;20195;-70
2022/03/09 05:39:56;;;;;;;0.10;0.10;;;26.20;99.90;;;;;;4916163;29;20197;-70
2022/03/09 05:42:23;;;;;;;0.50;0.30;;;26.40;99.90;;;;;;4915693;29;20252;-71
2022/03/09 05:44:50;;;;;;;1.00;0.30;;;26.70;99.90;;;;;;4915842;29;20181;-70
2022/03/09 05:47:18;;;;;;;0.10;0.10;;;26.40;99.90;;;;;;4908256;29;20249;-71
2022/03/09 05:49:45;;;;;;;0.20;0.20;;;26.30;99.90;;;;;;4916005;29;20181;-71
2022/03/09 05:52:12;;;;;;;0.10;0.10;;;26.10;99.90;;;;;;4915822;29;20208;-71
2022/03/09 05:54:40;;;;;;;0.47;0.10;;;25.80;99.90;;;;;;4915423;29;20196;-70
2022/03/09 05:57:07;;;;;;;0.17;0.10;;;25.50;99.90;;;;;;4915671;29;20268;-70
2022/03/09 05:59:35;;;;;;;0.20;0.20;;;25.20;99.90;;;;;;4916017;29;20197;-70
2022/03/09 06:02:02;;;;;;;2.17;0.20;;;25.20;99.90;;;;;;4915622;29;20240;-70
2022/03/09 06:04:30;;;;;;;3.00;0.23;;;25.30;99.90;;;;;;4915900;29;20185;-70
2022/03/09 06:06:58;;;;;;;0.20;0.20;;;25.20;99.90;;;;;;4915596;29;20231;-70
2022/03/09 06:09:29;;;;;;;0.40;0.30;;;25.50;99.90;;;;;;4915515;29;20188;-69
2022/03/09 06:11:57;;;;;;;0.30;0.20;;;25.40;99.90;;;;;;4915532;29;20208;-70
2022/03/09 06:14:25;;;;;;;0.20;0.20;;;25.20;99.90;;;;;;4915488;29;20224;-70
2022/03/09 06:16:52;;;;;;;1.43;0.10;;;25.30;99.90;;;;;;4915268;29;20201;-70
2022/03/09 06:19:20;;;;;;;0.13;0.13;;;25.50;99.90;;;;;;4915248;29;20189;-72
2022/03/09 06:21:48;;;;;;;1.20;0.30;;;25.30;99.90;;;;;;4914993;29;20257;-71
2022/03/09 06:24:18;;;;;;;3.93;0.20;;;25.50;99.90;;;;;;4915123;29;20542;-70
2022/03/09 06:26:48;;;;;;;1.00;0.20;;;25.30;99.90;;;;;;4914429;29;20287;-71
2022/03/09 06:29:16;;;;;;;2.23;0.30;;;25.30;99.90;;;;;;4915756;29;20177;-70
2022/03/09 06:31:44;;;;;;;0.43;0.20;;;25.40;99.90;;;;;;4915367;29;20651;-72
2022/03/09 06:34:13;;;;;;;0.83;0.10;;;25.50;99.90;;;;;;4914190;29;20505;-72
2022/03/09 06:36:44;;;;;;;0.33;0.30;;;25.90;99.90;;;;;;4917965;29;20284;-69
2022/03/09 06:39:13;;;;;;;0.27;0.20;;;25.70;99.90;;;;;;4919309;29;20193;-70
2022/03/09 06:41:43;;;;;;;0.60;0.23;;;25.90;99.90;;;;;;4918965;29;20209;-70
2022/03/09 06:44:12;;;;;;;1.60;0.20;;;26.00;99.90;;;;;;4919189;29;20252;-71
2022/03/09 06:46:41;;;;;;;0.40;0.20;;;26.30;99.90;;;;;;4919147;29;20185;-71
2022/03/09 06:49:08;;;;;;;0.97;0.20;;;26.00;99.90;;;;;;4919206;29;20271;-71
2022/03/09 06:51:36;;;;;;;1.33;0.40;;;26.20;99.90;;;;;;4918911;29;20220;-70
2022/03/09 06:54:04;;;;;;;0.23;0.20;;;26.10;99.90;;;;;;4919020;29;20185;-70
2022/03/09 06:56:32;;;;;;;2.87;0.20;;;26.30;99.90;;;;;;4918998;29;20184;-71
2022/03/09 06:59:00;;;;;;;0.27;0.13;;;25.90;99.90;;;;;;4918947;29;20205;-70
2022/03/09 07:01:27;;;;;;;0.27;0.20;;;25.70;99.90;;;;;;4918485;29;20233;-70
2022/03/09 07:03:55;;;;;;;0.47;0.23;;;25.90;99.90;;;;;;4918982;29;20193;-70
2022/03/09 07:06:23;;;;;;;0.20;0.20;;;26.10;99.90;;;;;;4918873;29;20185;-69
2022/03/09 07:08:50;;;;;;;1.30;0.97;;;26.10;99.90;;;;;;4918065;29;20189;-70
2022/03/09 07:11:18;;;;;;;0.70;0.40;;;25.70;99.90;;;;;;4918522;29;20178;-71
2022/03/09 07:13:46;;;;;;;0.67;0.30;;;25.80;99.90;;;;;;4918666;29;20185;-69
2022/03/09 07:16:14;;;;;;;1.90;0.20;;;25.70;99.90;;;;;;4918771;29;20197;-70
2022/03/09 07:18:41;;;;;;;1.27;0.33;;;25.50;99.90;;;;;;4918379;29;20207;-69
2022/03/09 07:21:09;;;;;;;0.30;0.20;;;25.10;99.90;;;;;;4916874;29;20185;-70
2022/03/09 07:23:37;;;;;;;0.97;0.23;;;24.60;99.90;;;;;;4918555;29;20589;-69
2022/03/09 07:26:04;;;;;;;1.97;0.20;;;24.50;99.90;;;;;;4917945;29;20232;-69
2022/03/09 07:28:32;;;;;;;0.40;0.20;;;24.40;99.90;;;;;;4918206;29;20711;-70
2022/03/09 07:31:00;;;;;;;2.20;0.30;;;24.50;99.90;;;;;;4918363;29;20702;-70
2022/03/09 07:33:28;;;;;;;0.83;0.27;;;24.40;99.90;;;;;;4918266;29;20252;-70
2022/03/09 07:35:56;;;;;;;0.30;0.30;;;24.20;99.90;;;;;;4917991;29;20189;-68
2022/03/09 07:38:24;;;;;;;0.20;0.20;;;24.00;99.90;;;;;;4902253;29;20197;-69
2022/03/09 07:40:52;;;;;;;0.77;0.30;;;23.80;99.90;;;;;;4918188;29;20208;-69
2022/03/09 07:43:20;;;;;;;2.30;0.50;;;23.70;99.90;;;;;;4918075;29;20251;-69
2022/03/09 07:45:49;;;;;;;0.27;0.27;;;23.60;99.90;;;;;;4916345;29;20179;-69
2022/03/09 07:48:16;;;;;;;0.47;0.37;;;23.60;99.90;;;;;;4917737;29;20184;-69
2022/03/09 07:50:44;;;;;;;0.30;0.23;;;23.60;99.90;;;;;;4917879;29;20350;-70
2022/03/09 07:53:12;;;;;;;0.30;0.27;;;23.50;99.90;;;;;;4917994;29;20583;-71
2022/03/09 07:55:40;;;;;;;1.50;0.40;;;23.40;99.90;;;;;;4917821;29;20259;-70
2022/03/09 07:58:07;;;;;;;0.90;0.40;;;23.30;99.90;;;;;;4917808;29;20272;-69
2022/03/09 08:00:35;;;;;;;0.73;0.33;;;23.20;99.90;;;;;;4898832;29;20228;-70
2022/03/09 08:03:03;;;;;;;0.50;0.50;;;23.10;99.90;;;;;;4898952;29;20233;-69
2022/03/09 08:05:31;;;;;;;1.37;0.30;;;22.90;99.90;;;;;;4910707;29;20188;-70
2022/03/09 08:07:58;;;;;;;1.53;0.40;;;22.80;99.90;;;;;;4916340;29;20193;-71
2022/03/09 08:10:27;;;;;;;1.20;0.60;;;22.80;99.90;;;;;;4917315;29;20675;-70
2022/03/09 08:12:54;;;;;;;4.30;0.70;;;22.60;99.90;;;;;;4917711;29;20221;-70
2022/03/09 08:15:22;;;;;;;4.67;0.70;;;22.50;99.90;;;;;;4917546;29;20184;-69
2022/03/09 08:17:50;;;;;;;4.57;1.13;;;22.40;99.90;;;;;;4917589;29;20189;-69
2022/03/09 08:20:18;;;;;;;5.80;1.17;;;22.30;99.90;;;;;;4916921;29;20279;-69
2022/03/09 08:22:45;;;;;;;4.83;0.90;;;22.20;99.90;;;;;;4917454;29;20229;-70
2022/03/09 08:25:13;;;;;;;1.53;0.80;;;22.10;99.90;;;;;;4917631;29;20173;-69
2022/03/09 08:27:41;;;;;;;3.57;1.20;;;21.90;99.90;;;;;;4917536;29;20913;-70
2022/03/09 08:30:09;;;;;;;9.23;1.93;;;21.90;99.90;;;;;;4916607;29;20272;-70
2022/03/09 08:32:37;;;;;;;10.57;2.00;;;21.80;99.90;;;;;;4917078;29;20277;-71
2022/03/09 08:35:05;;;;;;;9.27;2.10;;;21.70;99.90;;;;;;4915725;29;20250;-71
2022/03/09 08:37:33;;;;;;;12.13;2.47;;;21.60;99.90;;;;;;4917255;29;20181;-70
2022/03/09 08:40:01;;;;;;;8.83;1.80;;;21.50;99.90;;;;;;4916992;29;20209;-71
2022/03/09 08:42:29;;;;;;;6.63;1.90;;;21.40;99.90;;;;;;4917114;29;20251;-70
2022/03/09 08:44:56;;;;;;;7.23;1.90;;;21.40;99.90;;;;;;4915753;29;20193;-70
2022/03/09 08:47:24;;;;;;;12.03;1.70;;;21.20;99.90;;;;;;4917114;29;20177;-68
2022/03/09 08:49:52;;;;;;;9.17;2.30;;;21.10;99.90;;;;;;4916799;29;20223;-69
2022/03/09 08:52:19;;;;;;;14.67;1.97;;;21.00;99.90;;;;;;4917176;29;20201;-70
2022/03/09 08:54:47;;;;;;;7.83;2.07;;;20.90;99.90;;;;;;4915645;29;20280;-69
2022/03/09 08:57:16;;;;;;;7.07;1.90;;;20.90;99.90;;;;;;4916503;29;20199;-67
2022/03/09 08:59:45;;;;;;;10.20;2.03;;;20.80;99.90;;;;;;4915828;29;20204;-69
2022/03/09 09:02:12;;;;;;;8.73;2.60;;;20.70;99.90;;;;;;4916722;29;20224;-70
2022/03/09 09:04:40;;;;;;;9.93;2.83;;;20.70;99.90;;;;;;4916627;29;20185;-69
2022/03/09 09:07:08;;;;;;;7.03;2.17;;;20.60;99.90;;;;;;4915630;29;20305;-70
2022/03/09 09:09:35;;;;;;;8.67;2.67;;;20.60;99.90;;;;;;4916436;29;20673;-69
2022/03/09 09:12:04;;;;;;;12.13;2.30;;;20.40;99.90;;;;;;4916389;29;20191;-69
2022/03/09 09:14:33;;;;;;;10.33;2.70;;;20.40;99.90;;;;;;4916510;29;20260;-70
2022/03/09 09:17:01;;;;;;;17.67;2.70;;;20.40;99.90;;;;;;4916728;29;20300;-70
2022/03/09 09:19:29;;;;;;;7.53;2.10;;;20.40;99.90;;;;;;4916295;29;20182;-69
2022/03/09 09:21:57;;;;;;;13.13;2.57;;;20.40;99.90;;;;;;4916521;29;20232;-70
2022/03/09 09:24:24;;;;;;;10.60;2.70;;;20.40;99.90;;;;;;4914923;29;20253;-71
2022/03/09 09:26:52;;;;;;;12.17;2.47;;;20.40;99.90;;;;;;4916977;29;20339;-70
2022/03/09 09:29:20;;;;;;;10.93;2.10;;;20.30;99.90;;;;;;4917494;29;20193;-69
2022/03/09 09:31:49;;;;;;;8.90;2.47;;;20.10;99.90;;;;;;4917343;29;20212;-70
2022/03/09 09:34:17;;;;;;;8.83;2.07;;;20.20;99.90;;;;;;4917255;29;20184;-69
2022/03/09 09:36:46;;;;;;;13.10;2.57;;;20.10;99.90;;;;;;4917263;29;20608;-70
2022/03/09 09:39:15;;;;;;;7.87;2.47;;;20.10;99.90;;;;;;4914972;29;20244;-69
2022/03/09 09:41:45;;;;;;;12.43;2.00;;;20.10;99.90;;;;;;4916760;29;20224;-69
2022/03/09 09:44:14;;;;;;;5.93;1.97;;;20.00;99.90;;;;;;4916618;29;20189;-69
2022/03/09 09:46:43;;;;;;;6.93;1.80;;;19.90;99.90;;;;;;4915980;29;20237;-69
2022/03/09 09:49:15;;;;;;;10.00;2.20;;;20.00;99.90;;;;;;4916135;29;20191;-70
2022/03/09 09:51:45;;;;;;;5.53;1.73;;;20.10;99.90;;;;;;4914901;29;20647;-69
2022/03/09 09:54:15;;;;;;;9.47;2.10;;;20.00;99.90;;;;;;4915917;29;20196;-70
2022/03/09 09:56:43;;;;;;;7.60;1.70;;;19.80;99.90;;;;;;4916286;29;20255;-69
2022/03/09 09:59:11;;;;;;;10.67;2.13;;;19.80;99.90;;;;;;4915767;29;20213;-70
2022/03/09 10:01:41;;;;;;;8.37;1.50;;;19.80;99.90;;;;;;4915843;29;20319;-68
2022/03/09 10:04:09;;;;;;;10.30;1.90;;;19.80;99.90;;;;;;4915194;29;20192;-67
2022/03/09 10:06:37;;;;;;;6.03;1.70;;;19.70;99.90;;;;;;4915725;29;20228;-68
2022/03/09 10:09:09;;;;;;;7.87;1.73;;;19.70;99.90;;;;;;4915811;29;20657;-69
2022/03/09 10:11:56;;;;;;;6.40;1.90;;;19.70;99.90;;;;;;4915887;29;20229;-70
2022/03/09 10:14:50;;;;;;;7.43;1.50;;;19.60;99.90;;;;;;4915523;29;20185;-70
2022/03/09 10:17:28;;;;;;;8.50;1.60;;;19.60;99.90;;;;;;4914122;29;20216;-70
2022/03/09 10:20:07;;;;;;;5.13;1.60;;;19.60;99.90;;;;;;4913960;29;20193;-70
2022/03/09 10:22:45;;;;;;;7.30;1.73;;;19.60;99.90;;;;;;4914152;29;20602;-70
2022/03/09 10:25:13;;;;;;;6.40;1.90;;;19.50;99.90;;;;;;4913769;29;20279;-69
2022/03/09 10:27:44;;;;;;;10.23;2.17;;;19.40;99.90;;;;;;4914055;29;20177;-70
2022/03/09 10:30:19;;;;;;;7.97;2.20;;;19.40;99.90;;;;;;4914805;29;20187;-71
2022/03/09 10:32:56;;;;;;;7.20;1.87;;;19.40;99.90;;;;;;4915686;29;20263;-69
2022/03/09 10:35:27;;;;;;;9.10;2.07;;;19.30;99.90;;;;;;4914863;29;20603;-69
2022/03/09 10:37:55;;;;;;;5.40;1.57;;;19.20;99.90;;;;;;4915215;29;20189;-69
2022/03/09 10:40:24;;;;;;;8.20;1.83;;;19.10;99.90;;;;;;4915725;29;20682;-70
2022/03/09 10:42:52;;;;;;;8.80;2.27;;;19.10;99.90;;;;;;4915506;29;20220;-70
2022/03/09 10:45:20;;;;;;;12.17;2.27;;;19.20;99.90;;;;;;4915048;29;20268;-69
2022/03/09 10:47:49;;;;;;;8.93;1.93;;;19.20;99.90;;;;;;4915213;29;20217;-69
2022/03/09 10:50:25;;;;;;;14.67;2.47;;;19.10;99.90;;;;;;4915504;29;20187;-70
2022/03/09 10:53:08;;;;;;;6.30;1.87;;;19.10;99.90;;;;;;4915607;29;20649;-68
2022/03/09 10:55:38;;;;;;;11.50;1.43;;;19.00;99.90;;;;;;4915198;29;20185;-68
2022/03/09 10:58:22;;;;;;;14.40;2.53;;;19.00;99.90;;;;;;4915541;29;20185;-69
2022/03/09 11:00:53;;;;;;;7.80;1.30;;;19.00;99.90;;;;;;4915258;29;20262;-69
2022/03/09 11:03:22;;;;;;;9.03;1.77;;;18.90;99.90;;;;;;4915058;29;20240;-69
2022/03/09 11:05:55;;;;;;;8.00;1.90;;;18.90;99.90;;;;;;4915429;29;20264;-69
2022/03/09 11:08:35;;;;;;;9.87;1.70;;;18.80;99.90;;;;;;4915087;29;20217;-69
2022/03/09 11:11:03;;;;;;;9.13;1.83;;;18.80;99.90;;;;;;4915315;29;20177;-69
2022/03/09 11:13:35;;;;;;;6.77;1.83;;;18.70;99.90;;;;;;4914974;29;20179;-69
2022/03/09 11:16:04;;;;;;;5.87;1.60;;;18.70;99.90;;;;;;4915456;29;20182;-69
2022/03/09 11:18:33;;;;;;;11.20;1.50;;;18.70;99.90;;;;;;4915465;29;20655;-69
2022/03/09 11:21:09;;;;;;;11.30;1.63;;;18.60;99.90;;;;;;4915366;29;20706;-69
2022/03/09 11:23:40;;;;;;;12.90;2.50;;;18.60;99.90;;;;;;4917292;29;20571;-69
2022/03/09 11:26:26;;;;;;;4.63;1.87;;;18.70;99.90;;;;;;4918668;29;20227;-69
2022/03/09 11:29:05;;;;;;;11.03;1.97;;;18.80;99.90;;;;;;4918358;29;20185;-69
2022/03/09 11:31:51;;;;;;;10.97;2.10;;;18.70;99.90;;;;;;4918611;29;20185;-69
2022/03/09 11:34:41;;;;;;;8.47;2.00;;;18.60;99.90;;;;;;4919148;29;20189;-68
2022/03/09 11:37:20;;;;;;;7.33;2.00;;;18.60;99.90;;;;;;4919654;29;20188;-68
2022/03/09 11:40:08;;;;;;;5.87;1.80;;;18.60;99.90;;;;;;4919606;29;20186;-68
2022/03/09 11:42:45;;;;;;;8.70;2.03;;;18.60;99.90;;;;;;4909125;29;20235;-69
2022/03/09 11:45:29;;;;;;;6.67;1.80;;;18.60;99.90;;;;;;4919439;29;20646;-69
2022/03/09 11:47:58;;;;;;;16.53;2.63;;;18.50;99.90;;;;;;4918315;29;20196;-69
2022/03/09 11:50:32;;;;;;;8.50;2.07;;;18.50;99.90;;;;;;4918178;29;20609;-69
2022/03/09 11:53:08;;;;;;;8.00;1.90;;;18.50;99.90;;;;;;4919476;29;20647;-69
2022/03/09 11:55:37;;;;;;;13.37;2.17;;;18.50;99.90;;;;;;4919332;29;20192;-68
2022/03/09 11:58:14;;;;;;;7.33;2.03;;;18.40;99.90;;;;;;4919266;29;20530;-68
2022/03/09 12:01:04;;;;;;;8.37;1.80;;;18.40;99.90;;;;;;4918709;29;20600;-68
2022/03/09 12:03:39;;;;;;;16.47;2.70;;;18.40;99.90;;;;;;4919269;29;20215;-69
2022/03/09 12:06:42;;;;;;;12.00;2.03;;;18.30;99.90;;;;;;4919313;29;20177;-68
2022/03/09 12:09:11;;;;;;;7.77;1.90;;;18.30;99.90;;;;;;4919390;29;20188;-69
2022/03/09 12:12:09;;;;;;;9.23;1.73;;;18.30;99.90;;;;;;4918901;29;20634;-68
2022/03/09 12:15:03;;;;;;;8.87;2.00;;;18.20;99.90;;;;;;4918918;29;20185;-69
2022/03/09 12:17:32;;;;;;;9.63;1.70;;;18.20;99.90;;;;;;4919015;29;20185;-67
2022/03/09 12:20:20;;;;;;;11.63;2.03;;;18.20;99.90;;;;;;4917407;29;20197;-68
2022/03/09 12:22:57;;;;;;;9.13;2.00;;;18.10;99.90;;;;;;4918905;29;20241;-68
2022/03/09 12:25:47;;;;;;;15.17;2.67;;;18.10;99.90;;;;;;4918872;29;20176;-69
2022/03/09 12:31:01;;;;;;;7.90;2.00;;;18.00;99.90;;;;;;4918927;29;20274;-67
2022/03/09 12:33:30;;;;;;;11.00;2.27;;;17.90;99.90;;;;;;4918688;29;20205;-68
2022/03/09 12:36:24;;;;;;;11.67;1.93;;;17.90;99.90;;;;;;4918552;29;20182;-67
2022/03/09 12:38:55;;;;;;;8.83;2.83;;;17.80;99.90;;;;;;4916520;29;20308;-68
2022/03/09 12:41:34;;;;;;;7.57;2.00;;;17.80;99.90;;;;;;4917031;29;20184;-68
2022/03/09 12:44:12;;;;;;;6.40;2.00;;;17.70;99.90;;;;;;4918713;29;20196;-69
2022/03/09 12:46:43;;;;;;;11.93;2.10;;;17.60;99.90;;;;;;4918454;29;20185;-69
2022/03/09 12:49:13;;;;;;;7.53;2.13;;;17.50;99.90;;;;;;4917233;29;20203;-69
2022/03/09 12:51:53;;;;;;;8.30;1.87;;;17.50;99.90;;;;;;4917965;29;20189;-68
2022/03/09 12:54:38;;;;;;;9.37;1.60;;;17.40;99.90;;;;;;4918211;29;20727;-68
2022/03/09 12:57:15;;;;;;;8.97;2.23;;;17.30;99.90;;;;;;4918404;29;20546;-68
2022/03/09 13:00:03;;;;;;;9.53;2.10;;;17.20;99.90;;;;;;4917552;29;20195;-68
2022/03/09 13:02:52;;;;;;;9.57;2.13;;;17.10;99.90;;;;;;4918149;29;20249;-68